Carlisle, Washington
Current Conditions -  °F | °C
As of 12:20 AM on Saturday 20 Dec 2014 (Local Time) from KHQM Reporting Station
Light Rain Light Rain  
Wind Chill:   Ceiling: 3600
Heat Index:   Visibility: 7mi
Dew Point:   Wind: 12mph
Humidity: 93%   Direction: 80°E
Pressure: 29.78"   Gusts: NA
Location:  47.1425°N, 124.097°W
Report Text: KHQM 200820Z AUTO 08010KT 7SM -RA SCT028 BKN036 OVC049 08/07 A2978 RMK AO2 P0001 T00830072
Loading
Personal Weather Stations






























Interactive Weather Map New forecast layout! Learn more

10-Day Weather Forecast

Advertisements
Track Severe Weather on mobile